Time;durP1;ratioP1;P1;durP2;ratioP2;P2;SDS_P1;SDS_P2;PMS_P1;PMS_P2;Temp;Humidity;BMP_temperature;BMP_pressure;BME280_temperature;BME280_humidity;BME280_pressure;Samples;Min_cycle;Max_cycle;Signal;HPM_P1;HPM_P2
2021/08/07 00:02:21;;;;;;;4.83;4.40;;;16.70;99.90;;;;;;5037259;28;20447;-81
2021/08/07 00:04:48;;;;;;;5.30;4.80;;;16.70;99.90;;;;;;5037583;28;20488;-84
2021/08/07 00:07:14;;;;;;;5.73;4.67;;;16.70;99.90;;;;;;5037628;28;20950;-82
2021/08/07 00:09:41;;;;;;;5.27;4.73;;;16.70;99.90;;;;;;5037494;28;20922;-82
2021/08/07 00:12:08;;;;;;;5.50;5.00;;;16.70;99.90;;;;;;5043033;28;20478;-83
2021/08/07 00:14:34;;;;;;;4.73;4.37;;;16.70;99.90;;;;;;5038694;28;20454;-82
2021/08/07 00:17:02;;;;;;;6.70;4.47;;;16.60;99.90;;;;;;5037013;28;20521;-82
2021/08/07 00:19:30;;;;;;;5.38;4.40;;;16.60;99.90;;;;;;5037037;28;20505;-82
2021/08/07 00:21:57;;;;;;;4.10;3.67;;;16.60;99.90;;;;;;5037007;28;20211;-83
2021/08/07 00:24:23;;;;;;;4.83;4.43;;;16.60;99.90;;;;;;5037299;28;20439;-83
2021/08/07 00:26:50;;;;;;;4.53;4.20;;;16.80;99.90;;;;;;5036596;28;20442;-82
2021/08/07 00:29:17;;;;;;;5.10;4.00;;;16.60;99.90;;;;;;5036925;28;20470;-83
2021/08/07 00:31:43;;;;;;;3.93;3.50;;;16.50;99.90;;;;;;5039347;28;20474;-81
2021/08/07 00:34:11;;;;;;;4.80;4.07;;;16.50;99.90;;;;;;5040248;28;20493;-82
2021/08/07 00:36:38;;;;;;;4.07;3.63;;;16.50;99.90;;;;;;5040804;28;21047;-82
2021/08/07 00:39:05;;;;;;;4.80;4.40;;;16.60;99.90;;;;;;5040627;28;20482;-81
2021/08/07 00:41:32;;;;;;;5.37;4.87;;;16.60;99.90;;;;;;5041194;28;20478;-82
2021/08/07 00:43:58;;;;;;;4.50;4.17;;;16.50;99.90;;;;;;5040341;28;20446;-82
2021/08/07 00:46:25;;;;;;;4.80;4.40;;;16.60;99.90;;;;;;5041040;28;20466;-81
2021/08/07 00:48:51;;;;;;;10.80;4.70;;;16.50;99.90;;;;;;5041263;28;20473;-81
2021/08/07 00:51:19;;;;;;;4.60;4.20;;;16.50;99.90;;;;;;5040457;28;20454;-81
2021/08/07 00:53:46;;;;;;;5.50;4.50;;;16.40;99.90;;;;;;5053136;28;20438;-82
2021/08/07 00:56:13;;;;;;;4.97;3.97;;;16.40;99.90;;;;;;5056772;28;20211;-81
2021/08/07 00:58:40;;;;;;;6.27;4.30;;;16.40;99.90;;;;;;5053970;28;20509;-80
2021/08/07 01:01:10;;;;;;;4.77;4.00;;;16.30;99.90;;;;;;5055198;28;20454;-81
2021/08/07 01:03:45;;;;;;;4.00;3.70;;;16.30;99.90;;;;;;5049723;28;20451;-81
2021/08/07 01:06:25;;;;;;;4.80;4.50;;;16.30;99.90;;;;;;5053539;28;20435;-81
2021/08/07 01:09:02;;;;;;;5.33;4.83;;;16.30;99.90;;;;;;5056296;28;20482;-82
2021/08/07 01:11:39;;;;;;;4.73;4.33;;;16.30;99.90;;;;;;5049361;28;20466;-83
2021/08/07 01:14:08;;;;;;;5.13;4.43;;;16.20;99.90;;;;;;5042218;28;20450;-82
2021/08/07 01:16:39;;;;;;;5.10;4.70;;;16.40;99.90;;;;;;5032536;28;20537;-81
2021/08/07 01:19:14;;;;;;;5.20;4.40;;;16.40;99.90;;;;;;5040022;28;20470;-81
2021/08/07 01:21:46;;;;;;;5.30;4.90;;;16.40;99.90;;;;;;5040906;28;20521;-82
2021/08/07 01:24:16;;;;;;;4.77;4.37;;;16.40;99.90;;;;;;5040726;28;20960;-82
2021/08/07 01:26:50;;;;;;;5.63;5.10;;;16.40;99.90;;;;;;5040263;28;20443;-81
2021/08/07 01:29:19;;;;;;;5.47;4.27;;;16.40;99.90;;;;;;5039072;28;21001;-81
2021/08/07 01:31:47;;;;;;;4.50;4.10;;;16.30;99.90;;;;;;5039974;28;20522;-85
2021/08/07 01:34:14;;;;;;;11.10;4.27;;;16.30;99.90;;;;;;5039294;28;20454;-82
2021/08/07 01:36:41;;;;;;;8.27;5.10;;;16.20;99.90;;;;;;5039930;28;20498;-83
2021/08/07 01:39:08;;;;;;;4.33;4.03;;;16.30;99.90;;;;;;5044039;28;20888;-84
2021/08/07 01:41:36;;;;;;;5.13;4.63;;;16.30;99.90;;;;;;5032597;28;20540;-83
2021/08/07 01:44:02;;;;;;;5.13;4.73;;;16.40;99.90;;;;;;5046949;28;20957;-82
2021/08/07 01:46:36;;;;;;;5.30;4.80;;;16.30;99.90;;;;;;5050257;28;20451;-82
2021/08/07 01:49:09;;;;;;;4.80;4.50;;;16.30;99.90;;;;;;5046485;28;20459;-83
2021/08/07 01:51:41;;;;;;;6.27;4.80;;;16.30;99.90;;;;;;5039745;28;20431;-82
2021/08/07 01:54:09;;;;;;;5.43;4.97;;;16.30;99.90;;;;;;5039105;28;20501;-82
2021/08/07 01:56:41;;;;;;;5.13;4.73;;;16.30;99.90;;;;;;5038783;28;20487;-82
2021/08/07 01:59:11;;;;;;;4.73;4.33;;;16.30;99.90;;;;;;5039034;28;20467;-83
2021/08/07 02:01:40;;;;;;;5.50;4.50;;;16.30;99.90;;;;;;5038677;28;20915;-82
2021/08/07 02:04:07;;;;;;;5.93;5.43;;;16.20;99.90;;;;;;5039623;28;20869;-82
2021/08/07 02:06:36;;;;;;;4.97;4.67;;;16.20;99.90;;;;;;5039506;28;20874;-82
2021/08/07 02:09:03;;;;;;;5.87;5.27;;;16.20;99.90;;;;;;5047980;28;20467;-82
2021/08/07 02:11:30;;;;;;;5.83;4.83;;;16.20;99.90;;;;;;5039387;28;20474;-81
2021/08/07 02:13:58;;;;;;;6.27;5.27;;;16.20;99.90;;;;;;5044978;28;20455;-82
2021/08/07 02:16:26;;;;;;;5.20;4.80;;;16.20;99.90;;;;;;5042616;28;20475;-80
2021/08/07 02:18:55;;;;;;;5.17;4.67;;;16.20;99.90;;;;;;5043549;28;20499;-81
2021/08/07 02:21:22;;;;;;;4.80;4.40;;;16.10;99.90;;;;;;5042194;28;20465;-82
2021/08/07 02:23:50;;;;;;;33.50;25.93;;;15.20;99.90;;;;;;5039015;28;20813;-83
2021/08/07 02:26:17;;;;;;;6.23;4.80;;;16.20;99.90;;;;;;5038919;28;20850;-83
2021/08/07 02:28:45;;;;;;;6.10;5.60;;;16.20;99.90;;;;;;5038422;28;21028;-83
2021/08/07 02:31:11;;;;;;;5.80;5.30;;;16.10;99.90;;;;;;5038848;28;20479;-83
2021/08/07 02:33:39;;;;;;;4.97;4.57;;;16.20;99.90;;;;;;5038777;28;20442;-83
2021/08/07 02:36:09;;;;;;;6.03;5.30;;;16.10;99.90;;;;;;5038128;28;20501;-83
2021/08/07 02:44:04;;;;;;;5.30;4.80;;;;;;;;;;5048295;28;20525;-81
2021/08/07 02:46:38;;;;;;;5.33;4.83;;;;;;;;;;5057425;28;20442;-81
2021/08/07 02:52:09;;;;;;;4.93;4.57;;;16.00;99.90;;;;;;5049242;28;20504;-81
2021/08/07 02:54:39;;;;;;;5.83;5.37;;;;;;;;;;5056961;28;20442;-81
2021/08/07 02:57:24;;;;;;;4.97;4.57;;;16.00;99.90;;;;;;5057578;28;20512;-81
2021/08/07 02:59:53;;;;;;;5.90;5.40;;;16.00;99.90;;;;;;5066436;28;20472;-80
2021/08/07 03:02:24;;;;;;;11.80;6.03;;;;;;;;;;5075097;28;20448;-80
2021/08/07 03:04:58;;;;;;;5.60;5.00;;;;;;;;;;5075816;28;20437;-79
2021/08/07 03:07:28;;;;;;;6.37;5.20;;;16.00;99.90;;;;;;5067570;28;20427;-81
2021/08/07 03:10:02;;;;;;;6.10;5.40;;;15.90;99.90;;;;;;5058306;28;20474;-81
2021/08/07 03:12:36;;;;;;;5.33;4.83;;;15.90;99.90;;;;;;5058986;28;20920;-81
2021/08/07 03:15:25;;;;;;;6.80;4.93;;;15.90;99.90;;;;;;5060119;28;20927;-81
2021/08/07 03:17:52;;;;;;;6.40;4.93;;;15.90;99.90;;;;;;5057904;28;20494;-80
2021/08/07 03:20:30;;;;;;;6.37;5.70;;;;;;;;;;5057926;28;20469;-81
2021/08/07 03:23:02;;;;;;;5.33;4.80;;;15.90;99.90;;;;;;5074180;28;20418;-79
2021/08/07 03:25:31;;;;;;;5.10;4.63;;;15.80;99.90;;;;;;5065198;28;20434;-79
2021/08/07 03:28:15;;;;;;;5.93;5.33;;;15.90;99.90;;;;;;5071219;28;20523;-80
2021/08/07 03:30:44;;;;;;;6.60;6.00;;;;;;;;;;5074212;28;20426;-80
2021/08/07 03:33:15;;;;;;;5.77;5.17;;;;;;;;;;5073079;28;20450;-80
2021/08/07 03:35:45;;;;;;;5.70;5.10;;;;;;;;;;5073897;28;20490;-80
2021/08/07 03:38:25;;;;;;;6.40;5.80;;;15.90;99.90;;;;;;5074381;28;20497;-80
2021/08/07 03:41:01;;;;;;;6.90;6.27;;;15.80;99.90;;;;;;5074201;28;20457;-81
2021/08/07 03:43:41;;;;;;;5.37;4.97;;;16.50;99.90;;;;;;5065769;28;20428;-81
2021/08/07 03:46:15;;;;;;;5.40;4.90;;;15.90;99.90;;;;;;5057596;28;20452;-81
2021/08/07 03:48:48;;;;;;;7.90;7.10;;;15.80;99.90;;;;;;5062874;28;20472;-81
2021/08/07 03:51:17;;;;;;;6.30;5.77;;;16.50;99.90;;;;;;5069246;28;20432;-81
2021/08/07 03:54:04;;;;;;;9.77;7.70;;;18.20;99.90;;;;;;5071175;28;20469;-81
2021/08/07 03:57:02;;;;;;;7.77;5.13;;;17.90;99.90;;;;;;5064420;28;20435;-80
2021/08/07 03:59:31;;;;;;;4.80;4.50;;;;;;;;;;5065907;28;20565;-81
2021/08/07 04:02:03;;;;;;;6.00;5.50;;;;;;;;;;5057919;28;20456;-81
2021/08/07 04:08:26;;;;;;;7.40;5.70;;;16.80;99.90;;;;;;4945010;29;20498;-80
2021/08/07 04:14:05;;;;;;;7.10;5.60;;;15.90;99.90;;;;;;5029882;28;20454;-81
2021/08/07 04:16:39;;;;;;;5.00;4.60;;;15.60;99.90;;;;;;5057650;28;20446;-81
2021/08/07 04:22:36;;;;;;;5.63;5.13;;;;;;;;;;4984278;28;20207;-81
2021/08/07 04:25:15;;;;;;;5.93;5.43;;;16.00;99.90;;;;;;5057000;28;20442;-81
2021/08/07 04:27:46;;;;;;;7.97;5.13;;;15.90;99.90;;;;;;5056080;28;20464;-81
2021/08/07 04:33:28;;;;;;;6.37;4.90;;;16.00;99.90;;;;;;5038559;28;20481;-81
2021/08/07 04:36:19;;;;;;;6.20;5.70;;;16.00;99.90;;;;;;5057985;28;20932;-81
2021/08/07 04:39:04;;;;;;;8.90;6.23;;;16.10;99.90;;;;;;5061167;28;20490;-81
2021/08/07 04:41:33;;;;;;;5.70;5.10;;;16.00;99.90;;;;;;5055600;28;20474;-80
2021/08/07 04:44:21;;;;;;;6.50;5.83;;;16.10;99.90;;;;;;5054595;28;20447;-80
2021/08/07 04:46:50;;;;;;;6.73;6.10;;;16.70;99.90;;;;;;5056084;28;20453;-80
2021/08/07 04:55:55;;;;;;;7.10;6.40;;;16.30;99.90;;;;;;5052319;28;20450;-80
2021/08/07 04:59:32;;;;;;;6.67;6.17;;;16.70;99.90;;;;;;5056276;28;20516;-80
2021/08/07 05:02:32;;;;;;;6.60;6.00;;;15.60;99.90;;;;;;5056057;28;20753;-80
2021/08/07 05:05:18;;;;;;;9.37;6.27;;;16.20;99.90;;;;;;5040925;28;20786;-81
2021/08/07 05:07:49;;;;;;;7.00;6.30;;;;;;;;;;5057104;28;20930;-81
2021/08/07 05:10:23;;;;;;;8.20;7.40;;;16.40;99.90;;;;;;5056721;28;20446;-80
2021/08/07 05:13:36;;;;;;;10.37;8.93;;;16.30;99.90;;;;;;5055741;28;20414;-81
2021/08/07 05:16:28;;;;;;;12.27;11.03;;;16.50;99.90;;;;;;5025511;28;20957;-81
2021/08/07 05:22:44;;;;;;;8.10;7.40;;;16.40;99.90;;;;;;5032084;28;20438;-80
2021/08/07 05:28:47;;;;;;;8.40;7.60;;;18.00;99.90;;;;;;5059675;28;20469;-80
2021/08/07 05:37:51;;;;;;;8.30;6.47;;;16.70;99.90;;;;;;5038117;28;20446;-79
2021/08/07 05:40:56;;;;;;;5.25;4.75;;;14.90;99.90;;;;;;5063922;28;20457;-80
2021/08/07 05:43:39;;;;;;;4.67;4.27;;;16.80;99.90;;;;;;5053367;28;20212;-80
2021/08/07 05:49:31;;;;;;;7.47;4.83;;;;;;;;;;5013742;28;20468;-80
2021/08/07 05:52:12;;;;;;;7.30;5.30;;;17.20;99.90;;;;;;5016175;28;20492;-80
2021/08/07 05:57:59;;;;;;;5.63;5.13;;;17.10;99.90;;;;;;5064351;28;20564;-81
2021/08/07 06:00:32;;;;;;;5.10;4.63;;;17.20;99.90;;;;;;5060242;28;20454;-80
2021/08/07 06:19:25;;;;;;;4.77;4.30;;;17.50;99.90;;;;;;5054096;28;20507;-80
2021/08/07 06:25:45;;;;;;;4.95;4.45;;;17.40;99.90;;;;;;5058199;28;20446;-81
2021/08/07 06:28:29;;;;;;;;;;;;;;;;;;;;;
2021/08/07 06:31:01;;;;;;;4.33;4.03;;;;;;;;;;5059056;28;20430;-80
2021/08/07 06:33:45;;;;;;;5.17;3.83;;;17.60;99.90;;;;;;5057251;28;20522;-80
2021/08/07 06:37:18;;;;;;;7.20;5.33;;;17.60;99.90;;;;;;5058137;28;20414;-81
2021/08/07 06:40:18;;;;;;;4.93;4.53;;;18.90;99.90;;;;;;5059345;28;20482;-80
2021/08/07 06:43:22;;;;;;;5.40;4.90;;;15.00;99.90;;;;;;5058543;28;20796;-80
2021/08/07 06:49:10;;;;;;;5.37;4.30;;;18.50;99.90;;;;;;5058224;28;20478;-80
2021/08/07 06:54:44;;;;;;;4.20;3.80;;;18.10;99.90;;;;;;5062942;28;20470;-81
2021/08/07 06:57:33;;;;;;;4.43;4.03;;;19.10;99.90;;;;;;5058127;28;20513;-80
2021/08/07 07:03:36;;;;;;;5.13;3.70;;;;;;;;;;5057284;28;20450;-81
2021/08/07 07:09:14;;;;;;;4.93;4.50;;;18.40;99.90;;;;;;5050452;28;20513;-81
2021/08/07 07:12:10;;;;;;;6.03;4.40;;;18.40;99.90;;;;;;5059185;28;20446;-81
2021/08/07 07:15:10;;;;;;;6.37;5.10;;;18.70;99.90;;;;;;5049508;28;20451;-81
2021/08/07 07:20:45;;;;;;;4.90;4.40;;;18.60;99.90;;;;;;5064167;22;20490;-81
2021/08/07 07:23:22;;;;;;;4.83;4.30;;;20.90;99.90;;;;;;5059055;28;20858;-81
2021/08/07 07:28:48;;;;;;;3.50;3.20;;;;;;;;;;5057212;28;20472;-81
2021/08/07 07:31:44;;;;;;;3.77;3.47;;;18.80;99.90;;;;;;5059041;28;20438;-81
2021/08/07 07:34:11;;;;;;;3.93;3.63;;;;;;;;;;5059152;28;20450;-81
2021/08/07 07:36:51;;;;;;;5.20;3.40;;;;;;;;;;5059600;28;20820;-82
2021/08/07 07:39:39;;;;;;;;;;;;;;;;;;;;;
2021/08/07 07:42:37;;;;;;;4.97;4.03;;;18.60;99.90;;;;;;5055170;28;20514;-80
2021/08/07 07:45:05;;;;;;;3.47;3.17;;;19.40;99.90;;;;;;5058846;28;20548;-80
2021/08/07 07:47:40;;;;;;;4.40;3.90;;;19.30;99.90;;;;;;5058977;28;20450;-80
2021/08/07 07:50:19;;;;;;;3.57;3.27;;;19.20;99.90;;;;;;5058520;28;20426;-80
2021/08/07 07:52:47;;;;;;;4.77;4.30;;;;;;;;;;5073078;28;20468;-79
2021/08/07 07:55:25;;;;;;;3.43;2.97;;;19.40;99.90;;;;;;5064736;28;20449;-79
2021/08/07 07:58:01;;;;;;;4.13;3.80;;;;;;;;;;5064470;28;20436;-79
2021/08/07 08:00:38;;;;;;;3.97;3.67;;;19.50;99.90;;;;;;5065809;28;20456;-79
2021/08/07 08:03:12;;;;;;;3.57;3.27;;;20.10;99.90;;;;;;5066070;28;20466;-79
2021/08/07 08:06:19;;;;;;;4.40;3.73;;;19.70;99.90;;;;;;5064413;28;20509;-79
2021/08/07 08:08:52;;;;;;;3.77;3.40;;;;;;;;;;5073417;28;20534;-81
2021/08/07 08:11:39;;;;;;;;;;;;;;;;;;;;;
2021/08/07 08:14:28;;;;;;;4.60;3.43;;;19.80;99.90;;;;;;5064067;28;20490;-80
2021/08/07 08:19:44;;;;;;;3.60;3.30;;;19.90;99.90;;;;;;5058629;28;20478;-80
2021/08/07 08:22:25;;;;;;;5.80;4.93;;;19.50;99.90;;;;;;5061124;28;20453;-81
2021/08/07 08:24:59;;;;;;;8.07;5.73;;;20.00;99.90;;;;;;5062080;28;20536;-80
2021/08/07 08:27:28;;;;;;;3.90;2.80;;;;;;;;;;5061622;28;20438;-81
2021/08/07 08:30:10;;;;;;;;;;;;;;;;;;;;;
2021/08/07 09:00:32;;;;;;;3.40;3.10;;;20.80;99.90;;;;;;5081275;27;1242276;-81
2021/08/07 09:03:00;;;;;;;3.87;2.67;;;21.10;99.90;;;;;;5097831;28;20447;-82
2021/08/07 09:05:28;;;;;;;4.20;3.80;;;;;;;;;;5095938;28;20452;-81
2021/08/07 09:07:55;;;;;;;4.20;3.60;;;;;;;;;;5092965;28;20986;-81
2021/08/07 09:10:36;;;;;;;6.50;4.90;;;21.10;99.90;;;;;;5076063;28;20445;-81
2021/08/07 09:13:06;;;;;;;4.30;3.90;;;;;;;;;;5075580;28;20422;-81
2021/08/07 09:15:45;;;;;;;4.43;4.03;;;21.30;99.90;;;;;;5075874;28;20429;-80
2021/08/07 09:18:23;;;;;;;3.57;3.27;;;21.30;99.90;;;;;;5077510;28;20461;-81
2021/08/07 09:20:56;;;;;;;4.90;3.47;;;21.30;99.90;;;;;;5075025;28;20429;-81
2021/08/07 09:23:34;;;;;;;7.00;3.60;;;21.30;99.90;;;;;;5076003;28;20480;-80
2021/08/07 09:26:27;;;;;;;3.67;3.30;;;20.40;99.90;;;;;;5077001;28;20434;-80
2021/08/07 09:32:07;;;;;;;4.50;2.87;;;22.30;99.90;;;;;;5073424;28;20471;-81
2021/08/07 09:34:39;;;;;;;3.60;3.30;;;;;;;;;;5074177;28;20501;-81
2021/08/07 09:37:13;;;;;;;2.73;2.53;;;21.70;99.90;;;;;;5073856;28;20452;-81
2021/08/07 09:39:45;;;;;;;3.63;3.33;;;21.10;99.90;;;;;;5074245;28;20472;-81
2021/08/07 09:45:14;;;;;;;7.10;4.37;;;24.90;99.90;;;;;;5061376;28;20540;-80
2021/08/07 09:48:10;;;;;;;4.07;3.00;;;22.00;99.90;;;;;;5076744;28;20477;-80
2021/08/07 09:50:56;;;;;;;2.87;2.67;;;21.90;99.90;;;;;;5075660;28;20425;-81
2021/08/07 09:54:02;;;;;;;3.77;2.50;;;21.90;99.90;;;;;;5074893;28;20499;-80
2021/08/07 09:59:48;;;;;;;6.90;4.77;;;23.00;99.90;;;;;;5052941;28;20572;-80
2021/08/07 10:02:51;;;;;;;3.20;2.90;;;24.00;99.90;;;;;;5041606;28;20489;-80
2021/08/07 10:05:43;;;;;;;4.90;4.20;;;22.00;99.90;;;;;;5040806;28;20426;-80
2021/08/07 10:08:54;;;;;;;7.70;6.50;;;22.10;99.90;;;;;;5047173;28;20947;-80
2021/08/07 10:18:48;;;;;;;;;;;;;;;;;;;;;
2021/08/07 10:27:40;;;;;;;3.30;3.00;;;22.00;99.90;;;;;;5024852;28;20459;-82
2021/08/07 10:30:12;;;;;;;2.33;2.17;;;21.10;99.90;;;;;;5051207;28;20486;-82
2021/08/07 10:32:46;;;;;;;4.90;3.90;;;22.00;99.90;;;;;;5058905;28;20420;-80
2021/08/07 10:35:23;;;;;;;2.67;2.47;;;22.70;99.90;;;;;;5051003;28;20478;-80
2021/08/07 10:38:07;;;;;;;2.60;2.40;;;22.10;99.90;;;;;;5049884;28;20455;-79
2021/08/07 10:40:34;;;;;;;2.40;2.20;;;20.50;99.90;;;;;;5047023;28;20909;-80
2021/08/07 10:43:22;;;;;;;3.70;3.40;;;23.60;99.90;;;;;;5042294;28;20451;-80
2021/08/07 10:45:49;;;;;;;2.30;1.77;;;;;;;;;;5039812;28;20455;-81
2021/08/07 10:48:38;;;;;;;3.20;3.00;;;22.40;99.90;;;;;;5039879;28;20482;-81
2021/08/07 11:07:56;;;;;;;2.73;2.53;;;22.80;99.90;;;;;;4954913;29;20514;-82
2021/08/07 11:11:12;;;;;;;3.23;1.93;;;22.90;99.90;;;;;;4967695;28;20493;-82
2021/08/07 11:14:01;;;;;;;9.83;4.87;;;23.10;99.90;;;;;;5039355;28;20458;-82
2021/08/07 11:23:47;;;;;;;3.57;2.37;;;24.90;99.90;;;;;;4992527;28;20426;-82
2021/08/07 11:26:57;;;;;;;2.80;2.60;;;23.20;99.90;;;;;;4996115;28;20900;-81
2021/08/07 11:33:14;;;;;;;5.13;3.30;;;23.00;99.90;;;;;;5043024;28;20467;-79
2021/08/07 11:36:21;;;;;;;3.93;2.30;;;23.50;99.90;;;;;;5039762;28;20512;-82
2021/08/07 11:43:00;;;;;;;5.93;3.30;;;22.60;99.90;;;;;;5037515;28;20459;-80
2021/08/07 11:52:04;;;;;;;6.20;5.57;;;23.40;99.90;;;;;;5039138;28;20546;-83
2021/08/07 11:54:56;;;;;;;2.90;1.93;;;23.00;99.90;;;;;;5048080;28;20446;-81
2021/08/07 11:57:36;;;;;;;2.87;2.50;;;23.40;99.90;;;;;;5046498;28;20505;-82
2021/08/07 12:06:07;;;;;;;3.17;2.97;;;23.90;99.90;;;;;;5037346;28;20465;-82
2021/08/07 12:08:49;;;;;;;;;;;;;;;;;;;;;
2021/08/07 12:11:23;;;;;;;3.60;2.80;;;23.90;99.90;;;;;;5057270;28;20446;-81
2021/08/07 12:14:21;;;;;;;13.97;10.40;;;23.90;99.90;;;;;;5055836;28;20946;-82
2021/08/07 12:17:35;;;;;;;6.40;5.50;;;23.90;99.90;;;;;;5052724;28;20439;-82
2021/08/07 12:23:14;;;;;;;87.80;79.37;;;25.00;99.90;;;;;;5034662;28;20451;-81
2021/08/07 12:26:01;;;;;;;29.83;27.03;;;24.10;99.90;;;;;;5039770;28;20427;-81
2021/08/07 12:28:46;;;;;;;9.73;8.73;;;24.10;99.90;;;;;;5041681;28;20546;-80
2021/08/07 12:31:49;;;;;;;4.23;3.83;;;24.70;99.90;;;;;;5044529;28;20508;-80
2021/08/07 12:37:20;;;;;;;7.97;5.97;;;24.10;99.90;;;;;;5049112;28;20529;-80
2021/08/07 12:40:10;;;;;;;2.83;2.53;;;24.20;99.90;;;;;;5056373;28;20531;-81
2021/08/07 12:55:20;;;;;;;2.13;2.03;;;23.80;99.90;;;;;;5039036;28;20432;-81
2021/08/07 12:58:21;;;;;;;16.13;13.13;;;23.60;99.90;;;;;;5040010;28;20525;-81
2021/08/07 13:17:53;;;;;;;7.77;6.90;;;24.30;99.90;;;;;;4914803;29;20445;-81
2021/08/07 13:24:03;;;;;;;13.33;8.13;;;26.00;99.90;;;;;;4960009;28;20528;-80
2021/08/07 13:26:51;;;;;;;44.33;33.77;;;24.80;99.90;;;;;;4978387;28;20481;-82
2021/08/07 13:29:43;;;;;;;8.97;7.70;;;23.90;99.90;;;;;;4986423;28;20487;-82
2021/08/07 13:32:33;;;;;;;2.70;2.50;;;23.70;99.90;;;;;;5029764;28;20471;-81
2021/08/07 13:35:13;;;;;;;4.23;2.13;;;25.30;99.90;;;;;;5036772;28;20436;-80
2021/08/07 13:38:13;;;;;;;3.80;1.80;;;24.60;99.90;;;;;;5030123;28;20503;-81
2021/08/07 13:41:20;;;;;;;3.50;2.90;;;23.90;99.90;;;;;;5024519;28;20424;-82
2021/08/07 13:44:23;;;;;;;1.90;1.70;;;23.60;99.90;;;;;;5030502;28;20498;-82
2021/08/07 13:50:24;;;;;;;4.40;3.43;;;23.80;99.90;;;;;;5008466;28;20554;-81
2021/08/07 13:52:54;;;;;;;8.67;7.00;;;;;;;;;;5025928;28;20778;-82
2021/08/07 13:55:32;;;;;;;6.63;5.30;;;;;;;;;;5024624;28;20940;-81
2021/08/07 13:58:21;;;;;;;8.83;7.90;;;24.00;99.90;;;;;;5024037;28;20464;-82
2021/08/07 14:06:52;;;;;;;8.37;6.80;;;24.00;99.90;;;;;;5032870;28;20448;-81
2021/08/07 14:09:45;;;;;;;11.83;10.30;;;25.00;99.90;;;;;;5038537;28;20491;-82
2021/08/07 14:12:26;;;;;;;4.27;3.50;;;23.50;99.90;;;;;;5038941;28;20487;-80
2021/08/07 14:15:01;;;;;;;12.53;11.20;;;23.60;99.90;;;;;;5039819;28;20466;-82
2021/08/07 14:18:03;;;;;;;5.87;4.80;;;23.30;99.90;;;;;;5035661;28;20453;-83
2021/08/07 14:20:56;;;;;;;8.23;6.20;;;23.90;99.90;;;;;;5026936;28;20522;-81
2021/08/07 14:26:54;;;;;;;2.90;2.27;;;24.00;99.90;;;;;;4966558;29;20565;-80
2021/08/07 14:30:03;;;;;;;4.27;3.87;;;25.00;99.90;;;;;;5020937;28;20488;-82
2021/08/07 14:33:24;;;;;;;2.33;2.13;;;23.70;99.90;;;;;;5027541;28;20444;-82
2021/08/07 14:36:24;;;;;;;5.00;4.60;;;23.80;99.90;;;;;;4943988;29;20456;-82
2021/08/07 14:39:21;;;;;;;6.10;5.37;;;24.20;99.90;;;;;;4943289;29;20542;-82
2021/08/07 14:45:42;;;;;;;;;;;;;;;;;;;;;
2021/08/07 14:48:53;;;;;;;6.07;5.20;;;23.50;99.90;;;;;;5021206;28;20828;-81
2021/08/07 14:55:15;;;;;;;5.13;4.17;;;23.90;99.90;;;;;;4978062;28;20830;-82
2021/08/07 15:09:17;;;;;;;6.03;4.50;;;24.10;99.90;;;;;;4864615;29;20518;-83
2021/08/07 15:31:28;;;;;;;2.43;2.23;;;23.80;99.90;;;;;;5020945;28;20491;-83
2021/08/07 15:35:03;;;;;;;3.50;3.20;;;23.60;99.90;;;;;;5023445;28;20483;-82
2021/08/07 15:48:08;;;;;;;2.67;2.47;;;23.40;99.90;;;;;;4898873;29;20461;-78
2021/08/07 15:54:45;;;;;;;4.80;3.00;;;22.60;99.90;;;;;;4927584;29;20847;-81
2021/08/07 16:04:27;;;;;;;6.20;3.00;;;24.10;99.90;;;;;;4835526;29;20547;-82
2021/08/07 16:10:37;;;;;;;3.40;2.20;;;24.00;99.90;;;;;;5087900;23;20501;-82
2021/08/07 16:13:46;;;;;;;3.40;3.07;;;23.10;99.90;;;;;;4977764;28;20457;-81
2021/08/07 16:25:13;;;;;;;3.97;3.67;;;23.40;99.90;;;;;;5063697;23;20482;-84
2021/08/07 16:27:58;;;;;;;2.70;2.50;;;23.50;99.90;;;;;;5040229;28;20493;-83
2021/08/07 16:30:25;;;;;;;2.83;2.60;;;;;;;;;;5042912;28;20482;-81
2021/08/07 16:32:53;;;;;;;2.97;2.33;;;;;;;;;;5050247;28;20858;-84
2021/08/07 16:35:19;;;;;;;3.40;3.10;;;23.10;99.90;;;;;;5024328;28;20498;-83
2021/08/07 16:37:46;;;;;;;5.27;3.60;;;23.10;99.90;;;;;;5022986;28;20447;-83
2021/08/07 16:40:14;;;;;;;3.30;2.60;;;22.80;99.90;;;;;;5024637;28;20952;-82
2021/08/07 16:42:40;;;;;;;3.20;3.00;;;23.00;99.90;;;;;;5023040;28;20444;-83
2021/08/07 16:45:08;;;;;;;2.70;2.50;;;23.00;99.90;;;;;;5020164;28;20836;-82
2021/08/07 16:47:35;;;;;;;3.87;3.00;;;23.00;99.90;;;;;;5020327;28;20865;-82
2021/08/07 16:50:03;;;;;;;2.57;2.37;;;23.00;99.90;;;;;;5026273;28;20475;-83
2021/08/07 16:52:30;;;;;;;2.90;2.70;;;23.00;99.90;;;;;;5027366;28;20440;-83
2021/08/07 16:54:56;;;;;;;2.70;2.50;;;22.70;99.90;;;;;;5024451;28;20980;-84
2021/08/07 16:57:24;;;;;;;2.80;2.60;;;23.00;99.90;;;;;;5022537;28;20444;-83
2021/08/07 16:59:51;;;;;;;3.50;2.80;;;23.00;99.90;;;;;;5025147;28;20502;-83
2021/08/07 17:02:18;;;;;;;3.43;3.13;;;22.90;99.90;;;;;;5025239;28;20440;-83
2021/08/07 17:04:45;;;;;;;3.20;3.00;;;22.90;99.90;;;;;;5025661;28;20472;-82
2021/08/07 17:07:11;;;;;;;4.07;3.77;;;22.90;99.90;;;;;;5025692;28;20450;-83
2021/08/07 17:09:40;;;;;;;3.33;2.73;;;22.90;99.90;;;;;;5024562;28;20483;-83
2021/08/07 17:12:07;;;;;;;3.60;3.30;;;22.90;99.90;;;;;;5030325;28;20483;-82
2021/08/07 17:14:35;;;;;;;3.73;2.90;;;22.90;99.90;;;;;;5035159;28;20475;-82
2021/08/07 17:17:09;;;;;;;3.30;2.73;;;22.90;99.90;;;;;;5035276;28;20470;-83
2021/08/07 17:19:36;;;;;;;3.30;2.67;;;22.80;99.90;;;;;;5038503;28;20924;-83
2021/08/07 17:22:10;;;;;;;4.37;3.63;;;22.50;99.90;;;;;;5036188;28;20451;-83
2021/08/07 17:24:37;;;;;;;2.90;2.70;;;22.80;99.90;;;;;;5029218;28;20478;-83
2021/08/07 17:27:04;;;;;;;5.40;4.30;;;22.80;99.90;;;;;;5036731;28;20447;-82
2021/08/07 17:29:34;;;;;;;5.83;3.10;;;22.80;99.90;;;;;;5037588;28;20428;-83
2021/08/07 17:32:01;;;;;;;3.40;3.00;;;22.70;99.90;;;;;;5038794;28;20464;-83
2021/08/07 17:34:31;;;;;;;3.80;3.50;;;22.70;99.90;;;;;;5037799;28;20499;-83
2021/08/07 17:36:58;;;;;;;7.00;3.10;;;22.70;99.90;;;;;;5037684;28;20443;-83
2021/08/07 17:39:25;;;;;;;7.70;4.60;;;22.70;99.90;;;;;;5037064;28;20459;-84
2021/08/07 17:41:54;;;;;;;3.93;3.53;;;22.60;99.90;;;;;;5038712;28;20467;-82
2021/08/07 17:44:21;;;;;;;8.23;4.03;;;22.70;99.90;;;;;;5033308;28;20456;-83
2021/08/07 17:46:49;;;;;;;5.47;3.90;;;22.60;99.90;;;;;;5030314;28;20443;-84
2021/08/07 17:49:16;;;;;;;4.53;3.67;;;22.60;99.90;;;;;;5027696;28;20448;-85
2021/08/07 17:51:43;;;;;;;4.30;3.97;;;22.60;99.90;;;;;;5026634;28;20839;-84
2021/08/07 17:54:09;;;;;;;5.50;4.90;;;22.60;99.90;;;;;;5024177;28;20472;-83
2021/08/07 17:56:37;;;;;;;26.50;19.63;;;22.60;99.90;;;;;;5024441;28;20448;-84
2021/08/07 17:59:03;;;;;;;9.43;6.73;;;22.60;99.90;;;;;;5023056;28;20444;-83
2021/08/07 18:01:30;;;;;;;5.83;5.23;;;22.50;99.90;;;;;;5022823;28;20845;-83
2021/08/07 18:04:01;;;;;;;4.50;3.90;;;22.50;99.90;;;;;;5023514;28;20471;-83
2021/08/07 18:06:28;;;;;;;16.10;10.87;;;22.50;99.90;;;;;;5024235;28;20432;-82
2021/08/07 18:08:54;;;;;;;10.73;6.50;;;22.50;99.90;;;;;;5022262;28;20864;-83
2021/08/07 18:11:23;;;;;;;7.40;5.30;;;22.50;99.90;;;;;;5023045;28;20830;-84
2021/08/07 18:13:51;;;;;;;4.13;3.73;;;22.40;99.90;;;;;;5023009;28;20472;-84
2021/08/07 18:16:21;;;;;;;8.17;6.53;;;22.40;99.90;;;;;;5023206;28;20455;-84
2021/08/07 18:18:48;;;;;;;14.47;10.43;;;22.40;99.90;;;;;;5024161;28;20448;-84
2021/08/07 18:21:17;;;;;;;13.90;9.27;;;22.40;99.90;;;;;;5024345;28;20432;-84
2021/08/07 18:23:43;;;;;;;8.53;5.70;;;22.40;99.90;;;;;;5021430;28;20530;-84
2021/08/07 18:26:10;;;;;;;11.90;8.60;;;22.40;99.90;;;;;;5024526;28;20472;-84
2021/08/07 18:28:38;;;;;;;7.07;5.13;;;22.30;99.90;;;;;;5022216;28;20940;-84
2021/08/07 18:31:05;;;;;;;5.10;3.97;;;22.30;99.90;;;;;;5022226;28;20484;-83
2021/08/07 18:33:31;;;;;;;4.67;3.70;;;22.20;99.90;;;;;;5021756;28;20452;-83
2021/08/07 18:35:58;;;;;;;4.33;3.10;;;22.30;99.90;;;;;;5020207;28;20489;-83
2021/08/07 18:38:28;;;;;;;3.40;3.10;;;22.30;99.90;;;;;;5020729;28;20860;-83
2021/08/07 18:40:57;;;;;;;2.97;2.60;;;22.30;99.90;;;;;;5020333;28;20457;-84
2021/08/07 18:43:24;;;;;;;4.03;3.73;;;22.20;99.90;;;;;;5021317;28;20467;-82
2021/08/07 18:45:58;;;;;;;3.30;3.00;;;;;;;;;;5021644;28;20961;-83
2021/08/07 18:48:26;;;;;;;4.33;3.30;;;22.20;99.90;;;;;;5020883;28;20485;-83
2021/08/07 18:50:53;;;;;;;3.10;2.90;;;22.40;99.90;;;;;;5021321;28;20491;-84
2021/08/07 18:53:20;;;;;;;3.57;2.93;;;22.20;99.90;;;;;;5024979;28;20514;-83
2021/08/07 18:55:49;;;;;;;3.93;2.80;;;22.20;99.90;;;;;;5037668;28;20490;-83
2021/08/07 18:58:18;;;;;;;5.93;4.20;;;22.00;99.90;;;;;;5038362;28;20436;-84
2021/08/07 19:00:48;;;;;;;10.07;8.40;;;22.10;99.90;;;;;;5030993;28;20447;-84
2021/08/07 19:03:19;;;;;;;4.83;4.43;;;21.90;99.90;;;;;;5027664;28;20520;-84
2021/08/07 19:05:49;;;;;;;5.73;5.07;;;21.80;99.90;;;;;;5027032;28;20440;-83